Time;durP1;ratioP1;P1;durP2;ratioP2;P2;SDS_P1;SDS_P2;PMS_P1;PMS_P2;Temp;Humidity;BMP_temperature;BMP_pressure;BME280_temperature;BME280_humidity;BME280_pressure;Samples;Min_cycle;Max_cycle;Signal;HPM_P1;HPM_P2
2021/08/27 00:00:44;;;;;;;6.07;3.55;;;;;;;20.11;71.39;97617.00;5040304;28;20314;-58
2021/08/27 00:03:09;;;;;;;8.45;3.78;;;;;;;20.13;71.08;97604.41;5052337;28;20810;-58
2021/08/27 00:05:35;;;;;;;10.15;3.78;;;;;;;20.12;71.14;97608.06;5052452;28;20624;-57
2021/08/27 00:08:00;;;;;;;8.52;4.00;;;;;;;19.93;70.77;97601.28;5054995;28;20032;-58
2021/08/27 00:10:25;;;;;;;7.05;3.50;;;;;;;19.88;71.20;97602.00;5058853;28;20463;-59
2021/08/27 00:12:52;;;;;;;7.13;3.60;;;;;;;19.95;71.20;97615.03;5059558;28;20316;-58
2021/08/27 00:15:17;;;;;;;7.72;3.80;;;;;;;19.97;70.82;97597.19;5058514;28;20414;-58
2021/08/27 00:17:43;;;;;;;6.30;3.38;;;;;;;19.97;71.10;97607.72;5055797;28;20017;-58
2021/08/27 00:20:09;;;;;;;6.80;3.47;;;;;;;19.76;71.11;97601.97;5054704;28;20031;-58
2021/08/27 00:22:34;;;;;;;9.50;3.58;;;;;;;19.85;71.09;97609.56;5060229;28;20021;-58
2021/08/27 00:25:00;;;;;;;7.25;3.80;;;;;;;19.83;70.88;97603.72;5055177;28;20074;-58
2021/08/27 00:27:25;;;;;;;5.90;3.55;;;;;;;19.58;71.08;97573.81;5059514;28;20051;-58
2021/08/27 00:29:51;;;;;;;6.55;3.80;;;;;;;19.78;71.29;97607.03;5061534;28;20059;-58
2021/08/27 00:32:16;;;;;;;7.93;3.60;;;;;;;19.74;71.08;97584.78;5057312;28;20032;-58
2021/08/27 00:34:42;;;;;;;6.75;3.88;;;;;;;19.68;71.03;97583.84;5060102;28;20065;-58
2021/08/27 00:37:07;;;;;;;9.93;4.10;;;;;;;19.69;71.03;97603.09;5055261;28;20490;-58
2021/08/27 00:39:33;;;;;;;7.05;3.92;;;;;;;19.57;71.35;97566.16;5056459;28;20040;-58
2021/08/27 00:41:58;;;;;;;10.23;4.35;;;;;;;19.54;71.42;97577.16;5070517;28;20029;-59
2021/08/27 00:44:24;;;;;;;10.57;4.47;;;;;;;19.72;70.91;97603.44;5054384;28;20024;-59
2021/08/27 00:46:49;;;;;;;7.25;4.20;;;;;;;19.54;70.71;97601.69;5060457;28;20071;-57
2021/08/27 00:49:15;;;;;;;8.05;4.25;;;;;;;19.32;70.83;97569.78;5059536;28;20131;-58
2021/08/27 00:51:42;;;;;;;7.63;4.40;;;;;;;19.32;70.80;97566.34;5057129;28;20032;-58
2021/08/27 00:54:07;;;;;;;9.65;4.22;;;;;;;19.46;71.48;97599.41;5060308;28;20055;-58
2021/08/27 00:56:33;;;;;;;10.93;4.45;;;;;;;19.22;71.81;97574.81;5067297;28;20464;-58
2021/08/27 00:58:58;;;;;;;9.40;4.40;;;;;;;19.48;71.48;97599.19;5062758;28;20037;-57
2021/08/27 01:01:24;;;;;;;7.65;4.43;;;;;;;19.47;71.57;97597.56;5062353;28;20697;-58
2021/08/27 01:03:50;;;;;;;6.68;4.20;;;;;;;19.26;72.26;97581.25;5065830;28;20126;-58
2021/08/27 01:06:22;;;;;;;7.28;4.03;;;;;;;19.32;71.89;97582.16;5060283;28;20578;-58
2021/08/27 01:08:57;;;;;;;7.93;4.93;;;;;;;19.19;72.34;97593.72;5060388;28;20144;-58
2021/08/27 01:11:33;;;;;;;7.93;4.45;;;;;;;19.22;72.56;97593.28;5062509;28;20029;-58
2021/08/27 01:14:02;;;;;;;7.55;4.45;;;;;;;19.28;72.12;97595.00;5080524;28;20045;-58
2021/08/27 01:16:30;;;;;;;;;;;;;;;19.21;71.83;97602.19;5064749;28;20115;-58
2021/08/27 01:19:30;;;;;;;8.05;4.40;;;;;;;19.05;72.33;97605.47;5063379;28;19963;-58
2021/08/27 01:22:27;;;;;;;8.70;4.40;;;;;;;19.09;72.91;97590.81;5066751;28;20521;-58
2021/08/27 01:24:54;;;;;;;11.25;4.18;;;;;;;19.09;72.44;97593.44;5064744;28;20025;-58
2021/08/27 01:27:21;;;;;;;7.47;3.85;;;;;;;19.10;71.73;97598.50;5060939;28;20044;-56
2021/08/27 01:30:05;;;;;;;6.93;3.97;;;;;;;19.16;71.33;97604.69;5063899;28;20037;-56
2021/08/27 01:32:41;;;;;;;6.50;4.30;;;;;;;19.05;71.32;97592.28;5066066;28;20075;-56
2021/08/27 01:35:08;;;;;;;8.48;4.22;;;;;;;19.04;71.66;97594.13;5086152;28;20044;-58
2021/08/27 01:37:34;;;;;;;9.93;4.30;;;;;;;18.71;71.92;97562.91;5058357;28;20081;-58
2021/08/27 01:40:00;;;;;;;8.98;3.78;;;;;;;19.01;70.85;97589.28;5079071;28;20044;-58
2021/08/27 01:42:27;;;;;;;6.00;3.80;;;;;;;19.05;71.11;97605.47;5061968;28;20016;-56
2021/08/27 01:44:57;;;;;;;8.00;3.92;;;;;;;19.04;71.16;97612.56;5059468;28;20473;-58
2021/08/27 01:47:28;;;;;;;6.93;4.38;;;;;;;18.70;71.48;97577.13;5055635;28;20029;-59
2021/08/27 01:49:55;;;;;;;7.43;4.10;;;;;;;18.95;71.87;97612.06;5044994;28;20038;-58
2021/08/27 01:52:21;;;;;;;7.72;4.15;;;;;;;18.98;71.53;97618.72;5054497;28;20144;-58
2021/08/27 01:54:47;;;;;;;7.57;4.20;;;;;;;19.01;71.90;97611.16;5060606;28;20519;-58
2021/08/27 01:57:13;;;;;;;6.90;4.05;;;;;;;18.92;70.42;97611.72;5060364;28;20496;-58
2021/08/27 01:59:40;;;;;;;7.80;4.13;;;;;;;18.70;71.18;97591.06;5062071;28;20028;-59
2021/08/27 02:02:07;;;;;;;10.50;4.50;;;;;;;18.69;71.73;97625.53;5056378;28;20048;-58
2021/08/27 02:04:35;;;;;;;7.47;3.88;;;;;;;18.78;71.79;97608.41;5073403;28;20094;-58
2021/08/27 02:07:01;;;;;;;8.35;4.50;;;;;;;18.85;71.98;97618.88;5065580;28;20016;-58
2021/08/27 02:09:27;;;;;;;7.07;4.22;;;;;;;18.54;71.89;97583.78;5053036;28;20025;-57
2021/08/27 02:11:52;;;;;;;8.00;4.45;;;;;;;18.59;72.13;97589.19;5062088;28;20024;-58
2021/08/27 02:14:18;;;;;;;8.25;4.30;;;;;;;18.79;72.04;97618.72;5064203;28;20044;-58
2021/08/27 02:16:44;;;;;;;7.20;4.22;;;;;;;18.59;71.97;97587.38;5061919;28;20107;-54
2021/08/27 02:19:10;;;;;;;9.15;4.25;;;;;;;18.69;72.00;97600.03;5063828;28;20034;-58
2021/08/27 02:21:40;;;;;;;7.53;4.25;;;;;;;18.82;72.08;97609.63;5058236;28;20028;-58
2021/08/27 02:24:12;;;;;;;8.07;4.50;;;;;;;18.83;72.12;97619.09;5043767;28;20454;-58
2021/08/27 02:26:37;;;;;;;7.45;4.10;;;;;;;18.74;72.26;97615.94;5059104;28;20502;-58
2021/08/27 02:29:03;;;;;;;8.10;4.07;;;;;;;18.57;72.50;97625.47;5053793;28;20033;-58
2021/08/27 02:31:29;;;;;;;9.05;4.40;;;;;;;18.58;71.88;97627.06;5057332;28;20028;-58
2021/08/27 02:33:55;;;;;;;9.30;4.20;;;;;;;18.55;71.56;97622.25;5074302;28;20417;-59
2021/08/27 02:36:21;;;;;;;7.03;3.78;;;;;;;18.67;71.27;97631.00;5062114;28;20051;-58
2021/08/27 02:38:48;;;;;;;8.65;4.25;;;;;;;18.47;70.92;97594.38;5073091;28;20028;-58
2021/08/27 02:41:13;;;;;;;6.95;3.83;;;;;;;18.61;71.01;97627.44;5062473;28;20104;-58
2021/08/27 02:43:39;;;;;;;7.88;4.25;;;;;;;18.53;71.26;97624.31;5060908;28;20029;-59
2021/08/27 02:46:04;;;;;;;7.15;3.90;;;;;;;18.14;71.65;97592.91;5064084;28;20033;-58
2021/08/27 02:48:30;;;;;;;7.75;4.28;;;;;;;18.36;70.97;97619.63;5061630;28;20028;-58
2021/08/27 02:51:13;;;;;;;8.50;3.78;;;;;;;18.40;71.32;97633.16;5066960;28;20552;-58
2021/08/27 02:53:41;;;;;;;9.88;4.18;;;;;;;18.39;71.00;97634.16;5058105;28;20055;-60
2021/08/27 02:56:22;;;;;;;7.85;4.25;;;;;;;18.38;70.65;97624.66;5060414;28;20471;-59
2021/08/27 02:58:49;;;;;;;7.78;4.10;;;;;;;18.40;70.53;97630.53;5058621;28;20121;-58
2021/08/27 03:01:37;;;;;;;7.07;3.80;;;;;;;18.27;70.98;97633.28;5060865;28;20029;-59
2021/08/27 03:04:08;;;;;;;7.70;4.47;;;;;;;17.99;70.93;97597.72;5064224;28;20020;-58
2021/08/27 03:06:51;;;;;;;7.57;4.03;;;;;;;18.08;71.34;97604.31;5058194;28;20107;-58
2021/08/27 03:09:17;;;;;;;10.35;4.50;;;;;;;18.28;71.17;97635.69;5057446;28;20111;-58
2021/08/27 03:11:49;;;;;;;10.18;4.22;;;;;;;18.19;71.31;97634.38;5045158;28;20461;-58
2021/08/27 03:14:21;;;;;;;12.00;4.80;;;;;;;18.13;71.25;97640.50;5059616;28;20566;-58
2021/08/27 03:16:48;;;;;;;7.88;4.65;;;;;;;17.92;71.06;97602.25;5059202;28;20598;-57
2021/08/27 03:19:21;;;;;;;11.98;4.90;;;;;;;18.21;70.64;97641.00;5063025;28;20074;-58
2021/08/27 03:22:21;;;;;;;10.63;4.80;;;;;;;18.21;70.42;97629.69;5058007;28;20038;-56
2021/08/27 03:24:54;;;;;;;8.02;4.25;;;;;;;17.93;71.53;97640.69;5062762;28;20020;-59
2021/08/27 03:27:22;;;;;;;7.78;4.50;;;;;;;17.96;71.75;97648.13;5060995;28;20039;-58
2021/08/27 03:29:55;;;;;;;7.57;4.63;;;;;;;17.91;71.70;97650.63;5076026;28;20037;-59
2021/08/27 03:32:21;;;;;;;8.25;4.50;;;;;;;17.90;71.72;97633.22;5060544;28;20066;-57
2021/08/27 03:34:47;;;;;;;9.48;4.78;;;;;;;17.93;71.61;97651.19;5065661;28;20063;-57
2021/08/27 03:37:12;;;;;;;9.13;4.32;;;;;;;18.01;71.43;97650.91;5061739;28;20020;-58
2021/08/27 03:39:40;;;;;;;7.40;4.40;;;;;;;17.98;71.94;97648.69;5060950;28;20024;-62
2021/08/27 03:42:06;;;;;;;8.95;4.68;;;;;;;17.87;72.40;97642.34;5057709;28;20036;-58
2021/08/27 03:44:32;;;;;;;8.75;4.88;;;;;;;17.81;71.90;97657.09;5060298;28;20043;-60
2021/08/27 03:46:58;;;;;;;12.75;6.05;;;;;;;17.72;71.69;97647.06;5062087;28;20036;-59
2021/08/27 03:49:23;;;;;;;8.35;5.10;;;;;;;17.57;71.14;97618.47;5062095;28;20029;-55
2021/08/27 03:51:49;;;;;;;10.20;4.80;;;;;;;17.90;71.10;97657.69;5059232;28;20032;-58
2021/08/27 03:54:19;;;;;;;9.23;4.70;;;;;;;17.84;71.39;97661.16;5058142;28;21075;-59
2021/08/27 03:56:45;;;;;;;7.50;4.72;;;;;;;17.86;70.77;97656.50;5060820;28;20113;-58
2021/08/27 03:59:12;;;;;;;9.48;4.47;;;;;;;17.90;70.95;97670.03;5060398;28;20115;-58
2021/08/27 04:01:38;;;;;;;9.52;4.50;;;;;;;17.58;70.86;97659.53;5061686;28;20040;-58
2021/08/27 04:04:06;;;;;;;9.13;5.00;;;;;;;17.69;70.47;97671.97;5056111;28;20040;-58
2021/08/27 04:06:31;;;;;;;8.13;5.07;;;;;;;17.65;70.74;97687.38;5058545;28;20379;-58
2021/08/27 04:08:56;;;;;;;8.95;4.45;;;;;;;17.61;70.98;97695.88;5061605;28;20020;-59
2021/08/27 04:11:22;;;;;;;9.70;4.47;;;;;;;17.47;71.29;97693.34;5057728;28;20024;-57
2021/08/27 04:13:47;;;;;;;9.10;4.35;;;;;;;17.51;71.26;97690.28;5056511;28;20515;-58
2021/08/27 04:16:13;;;;;;;9.05;4.30;;;;;;;17.41;70.62;97681.06;5057258;28;20025;-58
2021/08/27 04:18:38;;;;;;;9.38;4.63;;;;;;;17.52;70.46;97699.78;5058892;28;20039;-61
2021/08/27 04:21:04;;;;;;;9.77;5.20;;;;;;;17.60;69.94;97704.78;5055490;28;20036;-57
2021/08/27 04:23:29;;;;;;;7.63;3.92;;;;;;;17.57;70.18;97698.13;5061101;28;20405;-57
2021/08/27 04:25:55;;;;;;;7.60;4.38;;;;;;;17.58;69.88;97705.00;5052638;28;20033;-58
2021/08/27 04:28:20;;;;;;;8.68;4.20;;;;;;;17.41;69.10;97674.97;5066137;28;20131;-58
2021/08/27 04:30:46;;;;;;;9.85;4.32;;;;;;;17.58;67.28;97712.09;5060245;28;20040;-59
2021/08/27 04:33:11;;;;;;;8.25;4.78;;;;;;;17.10;67.84;97694.94;5066515;28;20115;-56
2021/08/27 04:35:37;;;;;;;8.63;4.47;;;;;;;17.23;67.09;97722.97;5058672;28;20024;-58
2021/08/27 04:38:02;;;;;;;7.50;4.30;;;;;;;17.36;67.71;97737.84;5059962;28;20043;-58
2021/08/27 04:40:28;;;;;;;9.05;4.70;;;;;;;17.35;67.57;97734.44;5059479;28;20056;-58
2021/08/27 04:42:54;;;;;;;7.82;4.40;;;;;;;17.23;66.86;97704.56;5056902;28;20028;-58
2021/08/27 04:45:20;;;;;;;13.18;5.15;;;;;;;17.33;67.50;97733.03;5054156;28;20426;-58
2021/08/27 04:47:45;;;;;;;9.95;4.55;;;;;;;17.54;67.55;97745.88;5058551;28;20024;-56
2021/08/27 04:50:12;;;;;;;10.77;4.60;;;;;;;17.39;68.00;97721.69;5058376;28;20108;-59
2021/08/27 04:52:37;;;;;;;10.05;4.88;;;;;;;17.55;68.02;97733.53;5061103;28;20403;-59
2021/08/27 04:55:05;;;;;;;9.00;4.88;;;;;;;17.53;68.05;97752.13;5058835;28;20027;-59
2021/08/27 04:57:30;;;;;;;8.05;4.75;;;;;;;17.38;68.33;97760.28;5057071;28;20111;-58
2021/08/27 04:59:56;;;;;;;10.98;4.88;;;;;;;17.55;67.34;97781.63;5062858;28;20184;-59
2021/08/27 05:02:21;;;;;;;8.23;4.57;;;;;;;17.51;67.79;97777.81;5061822;28;20036;-58
2021/08/27 05:04:47;;;;;;;9.40;4.72;;;;;;;17.57;67.54;97781.44;5061088;28;20035;-58
2021/08/27 05:07:12;;;;;;;8.15;4.40;;;;;;;17.44;67.53;97766.53;5062544;28;20039;-58
2021/08/27 05:09:38;;;;;;;10.43;4.68;;;;;;;17.47;67.31;97785.31;5060810;28;20027;-60
2021/08/27 05:12:04;;;;;;;9.73;4.60;;;;;;;17.53;67.03;97793.38;5064375;28;20119;-59
2021/08/27 05:14:29;;;;;;;9.95;4.40;;;;;;;17.42;67.06;97802.72;5056899;28;20032;-58
2021/08/27 05:16:54;;;;;;;8.77;4.70;;;;;;;17.12;67.50;97773.53;5054481;28;20126;-59
2021/08/27 05:19:20;;;;;;;17.17;5.30;;;;;;;17.37;67.16;97815.69;5060545;28;20033;-58
2021/08/27 05:21:45;;;;;;;10.70;4.75;;;;;;;17.44;67.27;97824.34;5057151;28;20064;-58
2021/08/27 05:24:11;;;;;;;9.27;3.78;;;;;;;17.36;63.05;97806.16;5061263;28;20052;-58
2021/08/27 05:26:36;;;;;;;8.32;3.70;;;;;;;17.52;58.14;97810.16;5059804;28;20075;-58
2021/08/27 05:29:04;;;;;;;7.28;2.97;;;;;;;17.66;57.13;97820.41;5054596;28;20020;-57
2021/08/27 05:31:29;;;;;;;6.75;3.05;;;;;;;17.75;57.65;97820.16;5056151;28;20036;-59
2021/08/27 05:33:55;;;;;;;8.10;3.22;;;;;;;17.55;57.70;97791.34;5073692;28;20097;-58
2021/08/27 05:36:20;;;;;;;6.22;3.17;;;;;;;17.65;58.21;97810.09;5058630;28;20039;-58
2021/08/27 05:38:46;;;;;;;7.68;3.38;;;;;;;17.84;58.48;97846.00;5062228;28;20028;-59
2021/08/27 05:41:11;;;;;;;7.50;3.42;;;;;;;17.93;57.33;97851.88;5058197;28;20044;-58
2021/08/27 05:43:37;;;;;;;7.18;3.42;;;;;;;18.04;56.53;97840.66;5058295;28;20552;-57
2021/08/27 05:46:03;;;;;;;9.02;3.17;;;;;;;18.23;56.89;97854.72;5056371;28;20491;-58
2021/08/27 05:48:28;;;;;;;6.28;3.10;;;;;;;18.35;57.27;97854.84;5058669;28;20035;-58
2021/08/27 05:50:54;;;;;;;6.90;3.08;;;;;;;18.40;58.03;97856.84;5055995;28;20036;-58
2021/08/27 05:53:19;;;;;;;6.35;3.53;;;;;;;18.53;58.56;97862.00;5060484;28;20032;-60
2021/08/27 05:55:44;;;;;;;7.15;3.90;;;;;;;18.56;59.87;97866.03;5054370;28;20554;-59
2021/08/27 05:58:10;;;;;;;6.93;3.40;;;;;;;18.59;61.35;97860.34;5057848;28;20491;-58
2021/08/27 06:00:35;;;;;;;8.32;3.45;;;;;;;18.68;61.58;97850.34;5055305;28;20083;-58
2021/08/27 06:03:01;;;;;;;7.22;3.70;;;;;;;18.79;61.72;97863.63;5054167;28;20028;-58
2021/08/27 06:05:27;;;;;;;7.75;4.40;;;;;;;18.86;61.19;97863.59;5058610;28;20032;-59
2021/08/27 06:07:52;;;;;;;8.05;3.97;;;;;;;18.91;61.92;97874.31;5075786;28;20052;-59
2021/08/27 06:10:18;;;;;;;8.13;3.80;;;;;;;18.97;61.31;97875.25;5055781;28;20467;-60
2021/08/27 06:12:43;;;;;;;7.90;4.13;;;;;;;18.99;60.88;97867.94;5058244;28;20119;-59
2021/08/27 06:15:10;;;;;;;7.18;3.60;;;;;;;19.02;59.47;97872.78;5055267;28;20111;-57
2021/08/27 06:17:36;;;;;;;7.82;3.60;;;;;;;19.05;60.38;97885.50;5059342;28;20036;-59
2021/08/27 06:20:01;;;;;;;9.98;4.05;;;;;;;19.03;60.52;97882.28;5048278;28;20029;-58
2021/08/27 06:22:27;;;;;;;6.78;3.95;;;;;;;19.12;60.41;97877.56;5050155;28;20033;-58
2021/08/27 06:24:52;;;;;;;8.55;3.60;;;;;;;18.94;62.48;97871.22;5056712;28;20043;-60
2021/08/27 06:27:18;;;;;;;9.05;4.13;;;;;;;18.98;61.74;97868.94;5051248;28;20035;-59
2021/08/27 06:29:43;;;;;;;7.03;3.90;;;;;;;19.06;61.80;97878.44;5054588;28;20102;-59
2021/08/27 06:32:10;;;;;;;8.30;4.18;;;;;;;19.12;62.77;97888.09;5053872;28;20107;-59
2021/08/27 06:34:35;;;;;;;7.18;4.07;;;;;;;19.09;63.19;97884.03;5053313;28;20045;-58
2021/08/27 06:37:01;;;;;;;6.57;3.85;;;;;;;19.09;63.22;97893.78;5069197;28;20363;-59
2021/08/27 06:39:27;;;;;;;7.30;4.30;;;;;;;19.11;63.40;97895.19;5054188;28;20035;-59
2021/08/27 06:41:52;;;;;;;7.65;4.20;;;;;;;19.13;63.96;97892.31;5059419;28;20590;-59
2021/08/27 06:44:18;;;;;;;6.90;3.85;;;;;;;19.21;63.42;97892.06;5056981;28;20170;-59
2021/08/27 06:46:43;;;;;;;8.45;4.10;;;;;;;19.14;63.74;97884.19;5059559;28;21726;-60
2021/08/27 06:49:11;;;;;;;9.23;4.38;;;;;;;19.20;64.33;97888.63;5055808;28;20056;-59
2021/08/27 06:51:37;;;;;;;8.07;4.45;;;;;;;18.93;65.03;97856.44;5058289;28;20035;-59
2021/08/27 06:54:02;;;;;;;10.88;4.82;;;;;;;19.21;65.67;97900.75;5061480;28;20680;-59
2021/08/27 06:56:28;;;;;;;9.20;5.13;;;;;;;19.18;66.77;97900.38;5063628;28;20058;-60
2021/08/27 06:58:53;;;;;;;7.57;5.00;;;;;;;19.03;66.85;97869.13;5056518;28;20056;-59
2021/08/27 07:01:18;;;;;;;8.65;5.35;;;;;;;19.26;66.94;97904.56;5057461;28;20147;-59
2021/08/27 07:03:44;;;;;;;10.32;5.68;;;;;;;19.24;66.93;97891.63;5060610;28;20037;-58
2021/08/27 07:06:10;;;;;;;9.70;5.70;;;;;;;19.25;67.37;97905.59;5060804;28;20544;-59
2021/08/27 07:08:35;;;;;;;8.77;5.30;;;;;;;19.26;66.78;97900.13;5063657;28;20032;-58
2021/08/27 07:11:00;;;;;;;12.43;6.05;;;;;;;19.33;66.81;97906.13;5060657;28;20052;-58
2021/08/27 07:13:26;;;;;;;11.13;6.82;;;;;;;19.34;68.46;97914.84;5061785;28;20115;-59
2021/08/27 07:15:51;;;;;;;13.68;6.78;;;;;;;19.41;68.71;97915.56;5053890;28;20029;-58
2021/08/27 07:18:17;;;;;;;10.48;7.28;;;;;;;19.34;70.46;97920.09;5060571;28;20029;-58
2021/08/27 07:20:42;;;;;;;11.13;8.05;;;;;;;19.35;71.31;97921.72;5056299;28;20029;-58
2021/08/27 07:23:10;;;;;;;13.50;9.38;;;;;;;19.26;71.68;97892.22;5059955;28;20101;-59
2021/08/27 07:25:35;;;;;;;13.85;9.45;;;;;;;19.45;71.89;97918.59;5060924;28;20020;-58
2021/08/27 07:28:01;;;;;;;14.70;9.95;;;;;;;19.38;72.54;97922.09;5059707;28;20036;-58
2021/08/27 07:30:26;;;;;;;14.30;9.82;;;;;;;19.38;72.46;97930.00;5059209;28;20032;-58
2021/08/27 07:32:51;;;;;;;13.68;9.07;;;;;;;19.46;72.17;97934.19;5060667;28;20036;-58
2021/08/27 07:35:17;;;;;;;13.20;9.38;;;;;;;19.58;71.73;97937.69;5057069;28;20024;-58
2021/08/27 07:37:42;;;;;;;11.82;8.43;;;;;;;19.56;71.40;97933.66;5064681;28;20474;-58
2021/08/27 07:40:14;;;;;;;15.82;8.80;;;;;;;19.54;71.40;97943.63;5060131;28;20024;-59
2021/08/27 07:42:40;;;;;;;10.55;9.00;;;;;;;19.58;71.00;97942.16;5060340;28;20165;-59
2021/08/27 07:45:06;;;;;;;10.18;8.05;;;;;;;19.70;70.97;97945.69;5059492;28;20039;-58
2021/08/27 07:47:31;;;;;;;10.07;6.65;;;;;;;19.80;70.16;97942.56;5060367;28;20036;-57
2021/08/27 07:49:57;;;;;;;12.55;6.00;;;;;;;19.93;68.62;97952.97;5060915;28;20040;-58
2021/08/27 07:52:22;;;;;;;7.82;5.03;;;;;;;19.80;68.80;97934.66;5054591;28;20467;-59
2021/08/27 07:54:47;;;;;;;8.98;4.75;;;;;;;20.09;68.61;97954.19;5058981;28;20037;-58
2021/08/27 07:57:13;;;;;;;7.32;4.53;;;;;;;20.09;68.17;97961.31;5060409;28;20029;-59
2021/08/27 07:59:38;;;;;;;7.88;3.83;;;;;;;20.20;67.43;97952.63;5062453;28;20029;-59
2021/08/27 08:02:04;;;;;;;8.27;4.00;;;;;;;20.26;67.28;97962.31;5071397;28;20036;-58
2021/08/27 08:04:29;;;;;;;7.65;4.00;;;;;;;20.31;66.81;97962.44;5060046;28;20116;-59
2021/08/27 08:06:55;;;;;;;5.88;3.60;;;;;;;20.38;66.70;97961.56;5057378;28;20032;-59
2021/08/27 08:09:20;;;;;;;7.88;3.90;;;;;;;20.44;66.04;97958.81;5063749;28;20081;-58
2021/08/27 08:11:45;;;;;;;5.90;3.38;;;;;;;20.23;66.49;97933.72;5058701;28;20032;-58
2021/08/27 08:14:11;;;;;;;8.00;4.22;;;;;;;20.48;65.54;97957.34;5059895;28;20120;-58
2021/08/27 08:16:36;;;;;;;6.70;3.67;;;;;;;20.45;65.80;97957.00;5059012;28;20475;-58
2021/08/27 08:19:02;;;;;;;9.10;3.83;;;;;;;20.35;66.86;97957.50;5036438;28;20111;-59
2021/08/27 08:21:27;;;;;;;9.70;3.53;;;;;;;20.60;66.43;97960.03;5060563;28;20079;-59
2021/08/27 08:23:54;;;;;;;9.10;3.92;;;;;;;20.57;66.43;97965.75;5056744;28;20185;-58
2021/08/27 08:26:20;;;;;;;7.35;3.85;;;;;;;20.46;65.77;97932.19;5061455;28;20020;-58
2021/08/27 08:28:50;;;;;;;8.77;4.22;;;;;;;20.60;65.47;97959.22;5061338;28;20036;-59
2021/08/27 08:31:22;;;;;;;6.50;3.80;;;;;;;20.57;64.72;97931.41;5055021;28;20029;-58
2021/08/27 08:33:50;;;;;;;7.70;3.70;;;;;;;20.79;64.82;97970.53;5060370;28;20069;-58
2021/08/27 08:36:16;;;;;;;6.30;3.90;;;;;;;20.81;64.44;97976.41;5052092;28;20032;-58
2021/08/27 08:38:42;;;;;;;6.97;3.80;;;;;;;21.01;63.95;97969.00;5044036;28;20028;-58
2021/08/27 08:41:07;;;;;;;9.35;4.20;;;;;;;21.61;61.31;97915.13;5026334;28;20020;-59
2021/08/27 08:43:33;;;;;;;6.50;3.33;;;;;;;21.87;61.50;97968.56;5060637;28;20032;-59
2021/08/27 08:45:59;;;;;;;6.10;3.25;;;;;;;21.28;62.78;97956.16;5059389;28;20020;-59
2021/08/27 08:48:26;;;;;;;5.80;3.28;;;;;;;21.28;63.39;97973.84;5059827;28;20051;-58
2021/08/27 08:50:52;;;;;;;6.55;3.35;;;;;;;21.21;64.08;97973.97;5059664;28;20875;-58
2021/08/27 08:53:22;;;;;;;6.45;2.95;;;;;;;21.07;64.00;97969.94;5061450;28;20082;-58
2021/08/27 08:55:49;;;;;;;7.72;3.30;;;;;;;20.75;64.85;97954.34;5074851;28;20429;-58
2021/08/27 08:58:14;;;;;;;5.63;3.13;;;;;;;20.99;64.84;97972.88;5054891;28;20028;-58
2021/08/27 09:00:40;;;;;;;7.05;3.67;;;;;;;21.16;63.88;97971.19;5057277;28;20033;-59
2021/08/27 09:03:05;;;;;;;6.72;3.70;;;;;;;21.12;64.09;97946.25;5059410;28;20517;-60
2021/08/27 09:05:31;;;;;;;7.22;3.65;;;;;;;21.22;63.98;97974.75;5063660;28;20032;-59
2021/08/27 09:07:57;;;;;;;7.22;3.78;;;;;;;20.87;64.21;97939.31;5058469;28;20121;-58
2021/08/27 09:10:23;;;;;;;5.88;3.40;;;;;;;21.21;64.65;97984.53;5054440;28;20029;-58
2021/08/27 09:12:50;;;;;;;8.45;3.65;;;;;;;21.22;64.15;97988.78;5064633;28;20024;-57
2021/08/27 09:15:20;;;;;;;7.60;3.60;;;;;;;21.31;63.00;97984.75;5061720;28;20041;-57
2021/08/27 09:17:48;;;;;;;10.05;3.90;;;;;;;21.39;62.40;97980.16;5061202;28;20063;-58
2021/08/27 09:20:33;;;;;;;10.95;3.90;;;;;;;21.44;63.15;97978.44;5058719;28;20497;-58
2021/08/27 09:23:01;;;;;;;6.07;3.33;;;;;;;21.24;63.21;97957.63;5065850;28;20028;-58
2021/08/27 09:25:29;;;;;;;7.47;3.63;;;;;;;21.52;62.39;97984.44;5062275;28;20370;-58
2021/08/27 09:28:15;;;;;;;8.95;3.60;;;;;;;21.58;62.73;97983.53;5069493;28;20031;-59
2021/08/27 09:30:46;;;;;;;6.82;3.45;;;;;;;21.61;61.83;97991.00;5059182;28;20021;-57
2021/08/27 09:33:20;;;;;;;7.50;3.55;;;;;;;21.62;61.16;97984.69;5063446;28;20055;-59
2021/08/27 09:36:05;;;;;;;8.13;3.70;;;;;;;21.53;61.09;97994.81;5057522;28;20049;-59
2021/08/27 09:38:34;;;;;;;9.15;4.20;;;;;;;21.62;60.79;97993.41;5062390;28;20033;-59
2021/08/27 09:41:11;;;;;;;10.50;3.63;;;;;;;21.63;61.33;97987.09;5061188;28;20086;-58
2021/08/27 09:43:50;;;;;;;6.68;3.38;;;;;;;21.52;61.15;97965.94;5057555;28;20455;-59
2021/08/27 09:46:28;;;;;;;5.75;3.15;;;;;;;21.72;60.93;97995.47;5048751;28;20199;-59
2021/08/27 09:48:54;;;;;;;8.03;3.23;;;;;;;21.71;60.69;97969.28;5058108;28;20025;-59
2021/08/27 09:51:41;;;;;;;5.70;3.08;;;;;;;21.86;61.52;97977.50;5063216;28;20040;-58
2021/08/27 09:54:07;;;;;;;6.60;3.50;;;;;;;21.67;61.89;97982.94;5061616;28;20593;-58
2021/08/27 09:56:44;;;;;;;6.88;3.22;;;;;;;21.58;62.05;97984.34;5061270;28;20028;-59
2021/08/27 09:59:11;;;;;;;9.73;3.50;;;;;;;21.48;61.80;97984.94;5062150;28;20029;-59
2021/08/27 10:01:50;;;;;;;7.57;3.40;;;;;;;21.39;62.28;97988.09;5056818;28;20024;-57
2021/08/27 10:04:16;;;;;;;6.20;2.95;;;;;;;21.57;62.16;97984.56;5075875;28;20040;-58
2021/08/27 10:06:42;;;;;;;6.13;2.92;;;;;;;21.69;62.27;97985.38;5063005;28;20038;-59
2021/08/27 10:09:08;;;;;;;8.23;3.20;;;;;;;21.51;60.57;97951.91;5055187;28;20051;-59
2021/08/27 10:11:34;;;;;;;6.93;3.13;;;;;;;21.54;60.93;97977.09;5054802;28;20482;-58
2021/08/27 10:14:00;;;;;;;8.32;3.58;;;;;;;21.53;61.13;97986.06;5071468;28;20040;-59
2021/08/27 10:16:28;;;;;;;7.85;2.92;;;;;;;21.53;60.98;97983.44;5057428;28;20137;-59
2021/08/27 10:18:53;;;;;;;12.35;3.30;;;;;;;21.56;60.86;97988.22;5063779;28;20501;-59
2021/08/27 10:21:19;;;;;;;6.13;2.75;;;;;;;21.65;60.60;97985.03;5061840;28;20032;-59
2021/08/27 10:23:44;;;;;;;5.65;2.88;;;;;;;21.71;60.69;97982.50;5060181;28;20107;-57
2021/08/27 10:26:27;;;;;;;8.65;2.90;;;;;;;21.72;60.62;97970.88;5059883;28;20039;-59
2021/08/27 10:28:53;;;;;;;6.53;3.10;;;;;;;21.98;59.77;97983.59;5059222;28;20085;-59
2021/08/27 10:31:39;;;;;;;8.20;2.60;;;;;;;21.99;60.20;97985.19;5064806;28;20437;-58
2021/08/27 10:34:05;;;;;;;6.32;2.63;;;;;;;22.04;60.66;97993.25;5062474;28;20431;-59
2021/08/27 10:36:30;;;;;;;6.68;2.83;;;;;;;22.19;60.82;97991.94;5065573;28;20024;-59
2021/08/27 10:38:56;;;;;;;6.70;2.70;;;;;;;22.11;60.18;97956.06;5063915;28;20513;-59
2021/08/27 10:41:30;;;;;;;8.60;2.97;;;;;;;22.33;59.35;97984.56;5062201;28;20028;-59
2021/08/27 10:43:57;;;;;;;6.90;2.53;;;;;;;22.35;59.14;97980.63;5057498;28;20746;-58
2021/08/27 10:46:23;;;;;;;7.78;2.90;;;;;;;22.27;60.31;97970.44;5056175;28;20518;-59
2021/08/27 10:48:50;;;;;;;7.05;2.60;;;;;;;22.17;59.91;97949.81;5058541;28;20040;-59
2021/08/27 10:51:33;;;;;;;6.65;2.75;;;;;;;22.38;58.85;97974.03;5051871;28;20109;-59
2021/08/27 10:53:59;;;;;;;8.25;2.70;;;;;;;;;;5053393;28;20070;-58
2021/08/27 10:56:49;;;;;;;8.27;2.88;;;;;;;22.22;59.79;97979.03;5049051;28;20025;-58
2021/08/27 10:59:15;;;;;;;7.93;2.65;;;;;;;22.01;60.75;97955.84;5063751;28;20108;-58
2021/08/27 11:01:45;;;;;;;6.88;2.78;;;;;;;22.22;60.29;97983.53;5048939;28;20827;-58
2021/08/27 11:04:12;;;;;;;6.78;2.70;;;;;;;22.06;59.82;97961.25;5046367;28;20029;-59
2021/08/27 11:07:07;;;;;;;8.45;2.58;;;;;;;22.10;59.97;97972.16;5049385;28;20572;-59
2021/08/27 11:09:34;;;;;;;5.95;3.00;;;;;;;22.21;60.08;97982.72;5052297;28;20025;-59
2021/08/27 11:12:06;;;;;;;9.68;2.88;;;;;;;22.36;59.35;97978.78;5053364;28;20104;-59
2021/08/27 11:14:31;;;;;;;11.00;3.00;;;;;;;22.26;59.18;97969.59;5050686;28;20079;-58
2021/08/27 11:16:58;;;;;;;7.63;2.63;;;;;;;22.27;59.23;97978.38;5049528;28;20021;-59
2021/08/27 11:19:28;;;;;;;8.27;2.55;;;;;;;22.14;59.22;97978.59;5049201;28;20028;-59
2021/08/27 11:22:20;;;;;;;6.80;2.60;;;;;;;21.98;60.10;97977.50;5046305;28;20324;-59
2021/08/27 11:25:08;;;;;;;8.10;2.67;;;;;;;21.72;60.42;97941.75;5048962;28;20533;-59
2021/08/27 11:27:38;;;;;;;8.15;2.65;;;;;;;22.04;60.23;97984.50;5050835;28;20636;-59
2021/08/27 11:30:29;;;;;;;8.48;2.80;;;;;;;22.26;60.50;97977.56;5047783;28;20228;-59
2021/08/27 11:32:55;;;;;;;9.65;3.67;;;;;;;22.17;59.53;97975.50;5056276;28;20112;-60
2021/08/27 11:35:22;;;;;;;8.68;3.03;;;;;;;22.38;59.88;97987.28;5050846;28;20903;-59
2021/08/27 11:38:04;;;;;;;8.23;3.15;;;;;;;22.44;60.62;97984.50;5060018;28;20047;-59